Station Historical Data
Daily Summary for June 5, 2017 Units:  English    Metric   Both
« Previous Day
Next Day »
Daily Weekly Monthly Yearly Custom
  High: Low: Average:
Temperature: 80.9 °F 69.7 °F 72.4 °F
Dew Point: 72.3 °F 67.6 °F 69 °F
Humidity: 95% 66% 90%
Wind Speed: 1.0mph 0.0mph 0mph
Wind Gust: 5.0mph - -
Wind- - SW
Pressure: 29.92 in 29.77 in -
Precipitation: 0.17 in    
Historical Graphs
 
 
Tabular Data for June 5, 2017
Time Temperature Dew Point Pressure Wind Wind Speed Wind Gust Humidity Rainfall Rate (Hourly) Conditions
00:00 69.9 °F 67.8 °F 29.92 in Calm   1.0 mph 93% 0.00 in RA
00:10 69.9 °F 67.8 °F 29.92 in Calm   1.0 mph 93% 0.00 in SCT
00:20 69.9 °F 67.8 °F 29.91 in Calm   1.0 mph 93% 0.00 in SCT
00:30 69.8 °F 67.7 °F 29.91 in Calm     93% 0.01 in SCT
00:40 69.7 °F 67.6 °F 29.91 in Calm     93% 0.00 in SCT
00:50 69.7 °F 67.6 °F 29.91 in Calm     93% 0.00 in SCT
01:00 69.7 °F 67.6 °F 29.91 in Calm     93% 0.00 in SCT
01:10 69.8 °F 67.7 °F 29.91 in Calm     93% 0.00 in SCT
01:20 69.9 °F 67.8 °F 29.90 in Calm     93% 0.00 in SCT
01:30 70.1 °F 68.0 °F 29.90 in Calm     93% 0.00 in SCT
01:40 70.1 °F 68.0 °F 29.89 in Calm     93% 0.00 in SCT
01:50 70.1 °F 68.0 °F 29.89 in Calm   1.0 mph 93% 0.01 in SCT
02:00 70.1 °F 68.0 °F 29.89 in Calm     93% 0.00 in SCT
02:10 70.2 °F 68.1 °F 29.89 in Calm   1.0 mph 93% 0.00 in SCT
02:20 70.2 °F 68.1 °F 29.88 in Calm   1.0 mph 93% 0.00 in SCT
02:30 70.2 °F 68.4 °F 29.88 in Calm     94% 0.00 in SCT
02:40 70.2 °F 68.4 °F 29.88 in Calm     94% 0.00 in SCT
02:50 70.2 °F 68.4 °F 29.88 in Calm     94% 0.00 in SCT
03:00 70.2 °F 68.4 °F 29.88 in Calm     94% 0.00 in SCT
03:10 70.2 °F 68.4 °F 29.87 in Calm     94% 0.00 in SCT
03:20 70.2 °F 68.4 °F 29.87 in Calm     94% 0.00 in SCT
03:30 69.7 °F 68.2 °F 29.87 in Calm     95% 0.00 in SCT
03:40 69.7 °F 68.2 °F 29.86 in Calm     95% 0.00 in SCT
03:50 69.7 °F 68.2 °F 29.86 in Calm     95% 0.00 in SCT
04:00 69.7 °F 68.2 °F 29.86 in Calm     95% 0.00 in SCT
04:10 69.7 °F 68.2 °F 29.86 in Calm     95% 0.00 in SCT
04:20 69.7 °F 68.2 °F 29.86 in Calm     95% 0.00 in SCT
04:30 69.7 °F 68.2 °F 29.86 in Calm     95% 0.00 in SCT
04:40 69.7 °F 68.2 °F 29.86 in Calm     95% 0.00 in SCT
04:50 69.7 °F 68.2 °F 29.86 in Calm     95% 0.00 in SCT
05:00 69.7 °F 68.2 °F 29.85 in Calm     95% 0.00 in SCT
05:10 69.7 °F 68.2 °F 29.85 in Calm     95% 0.00 in SCT
05:20 69.7 °F 68.2 °F 29.85 in Calm     95% 0.00 in SCT
05:30 69.7 °F 68.2 °F 29.86 in Calm     95% 0.00 in SCT
05:40 69.7 °F 68.2 °F 29.85 in Calm     95% 0.00 in SCT
05:50 69.7 °F 68.2 °F 29.86 in Calm     95% 0.00 in SCT
06:00 69.7 °F 68.2 °F 29.86 in Calm     95% 0.00 in SCT
06:10 69.7 °F 68.2 °F 29.86 in Calm     95% 0.00 in SCT
06:20 69.7 °F 68.2 °F 29.87 in Calm     95% 0.00 in SCT
06:30 69.7 °F 68.2 °F 29.87 in Calm     95% 0.00 in SCT
06:40 69.7 °F 68.2 °F 29.87 in Calm     95% 0.00 in SCT
06:50 69.7 °F 68.2 °F 29.87 in Calm     95% 0.00 in SCT
07:00 69.7 °F 68.2 °F 29.87 in Calm     95% 0.00 in SCT
07:10 69.7 °F 68.2 °F 29.87 in Calm     95% 0.00 in SCT
07:20 69.7 °F 68.2 °F 29.87 in Calm     95% 0.00 in SCT
07:30 69.7 °F 68.2 °F 29.87 in Calm     95% 0.00 in SCT
07:40 69.7 °F 68.2 °F 29.87 in Calm     95% 0.00 in SCT
07:50 69.7 °F 68.2 °F 29.87 in Calm     95% 0.00 in SCT
08:00 69.7 °F 68.2 °F 29.87 in Calm     95% 0.00 in SCT
08:10 69.7 °F 68.2 °F 29.87 in Calm     95% 0.00 in SCT
08:20 70.4 °F 68.5 °F 29.87 in Calm     94% 0.00 in SCT
08:30 70.8 °F 69.0 °F 29.87 in Calm   1.0 mph 94% 0.00 in SCT
08:40 71.1 °F 69.3 °F 29.87 in Calm   1.0 mph 94% 0.00 in SCT
08:50 71.1 °F 69.3 °F 29.87 in Calm     94% 0.00 in SCT
09:00 71.2 °F 69.4 °F 29.88 in Calm   1.0 mph 94% 0.00 in SCT
09:10 71.3 °F 69.5 °F 29.87 in Calm   1.0 mph 94% 0.00 in SCT
09:20 71.4 °F 69.6 °F 29.87 in Calm   1.0 mph 94% 0.00 in SCT
09:30 71.7 °F 69.9 °F 29.87 in Calm   1.0 mph 94% 0.00 in SCT
09:40 71.9 °F 70.1 °F 29.87 in Calm     94% 0.00 in SCT
09:50 72.1 °F 69.9 °F 29.87 in Calm   1.0 mph 93% 0.00 in SCT
10:00 72.4 °F 70.3 °F 29.87 in Calm     93% 0.00 in SCT
10:10 72.4 °F 70.3 °F 29.87 in Calm     93% 0.00 in SCT
10:20 72.6 °F 70.1 °F 29.87 in Calm   2.0 mph 92% 0.00 in SCT
10:30 72.9 °F 70.4 °F 29.87 in Calm   1.0 mph 92% 0.00 in SCT
10:40 73.5 °F 70.7 °F 29.87 in NNW 1.0 mph 2.0 mph 91% 0.00 in SCT
10:50 73.9 °F 70.8 °F 29.86 in Calm   2.0 mph 90% 0.00 in SCT
11:00 74.4 °F 70.9 °F 29.86 in Calm   1.0 mph 89% 0.00 in SCT
11:10 74.3 °F 70.8 °F 29.86 in Calm   1.0 mph 89% 0.00 in SCT
11:20 74.2 °F 70.5 °F 29.86 in Calm   2.0 mph 88% 0.00 in SCT
11:30 73.7 °F 70.3 °F 29.86 in Calm   1.0 mph 89% 0.00 in SCT
11:40 73.6 °F 70.4 °F 29.86 in Calm     90% 0.00 in SCT
11:50 73.9 °F 71.1 °F 29.86 in Calm   2.0 mph 91% 0.00 in SCT
12:00 74.2 °F 70.7 °F 29.85 in Calm   1.0 mph 89% 0.00 in SCT
12:10 74.7 °F 70.9 °F 29.85 in Calm   3.0 mph 88% 0.00 in SCT
12:20 75.4 °F 71.6 °F 29.84 in Calm   3.0 mph 88% 0.00 in SCT
12:30 75.6 °F 71.5 °F 29.84 in Calm   1.0 mph 87% 0.00 in SCT
12:40 76.1 °F 71.9 °F 29.84 in Calm     87% 0.00 in SCT
12:50 76.3 °F 71.1 °F 29.84 in Calm   1.0 mph 84% 0.00 in SCT
13:00 76.2 °F 71.7 °F 29.83 in Calm   1.0 mph 86% 0.00 in SCT
13:10 76.0 °F 71.5 °F 29.83 in Calm     86% 0.00 in SCT
13:20 76.3 °F 71.5 °F 29.83 in Calm   1.0 mph 85% 0.00 in SCT
13:30 77.7 °F 71.0 °F 29.82 in WSW 1.0 mph 3.0 mph 80% 0.00 in SCT
13:40 78.7 °F 72.3 °F 29.82 in Calm   3.0 mph 81% 0.00 in SCT
13:50 79.8 °F 72.0 °F 29.81 in Calm   3.0 mph 77% 0.00 in SCT
14:00 80.2 °F 70.4 °F 29.81 in North 1.0 mph 3.0 mph 72% 0.00 in SCT
14:10 80.8 °F 72.2 °F 29.81 in Calm   3.0 mph 75% 0.00 in SCT
14:20 80.9 °F 70.2 °F 29.81 in Calm   2.0 mph 70% 0.00 in SCT
14:30 79.6 °F 70.2 °F 29.80 in Calm   2.0 mph 73% 0.00 in SCT
14:40 79.8 °F 71.2 °F 29.80 in Calm   2.0 mph 75% 0.00 in SCT
14:50 80.1 °F 70.3 °F 29.80 in Calm   1.0 mph 72% 0.00 in SCT
15:00 80.3 °F 71.3 °F 29.80 in Calm   3.0 mph 74% 0.00 in SCT
15:10 79.9 °F 70.9 °F 29.80 in Calm   2.0 mph 74% 0.00 in SCT
15:20 79.9 °F 70.8 °F 29.80 in Calm   3.0 mph 74% 0.00 in SCT
15:30 80.2 °F 71.6 °F 29.80 in Calm   2.0 mph 75% 0.00 in SCT
15:40 80.5 °F 70.3 °F 29.79 in WSW 1.0 mph 2.0 mph 71% 0.00 in SCT
15:50 80.6 °F 70.7 °F 29.79 in Calm   3.0 mph 72% 0.00 in SCT
16:00 80.9 °F 68.9 °F 29.78 in Calm   5.0 mph 67% 0.00 in SCT
16:10 80.6 °F 68.2 °F 29.78 in Calm   2.0 mph 66% 0.00 in SCT
16:20 80.3 °F 68.8 °F 29.77 in Calm   2.0 mph 68% 0.00 in SCT
16:30 79.3 °F 68.7 °F 29.79 in West 1.0 mph 3.0 mph 70% 0.00 in SCT
16:40 76.6 °F 67.7 °F 29.79 in WNW 1.0 mph 5.0 mph 74% 0.00 in SCT
16:50 74.3 °F 68.5 °F 29.79 in Calm   3.0 mph 82% 0.06 in RA
17:00 72.5 °F 68.8 °F 29.79 in Calm   2.0 mph 88% 0.08 in RA
17:10 72.2 °F 69.1 °F 29.80 in Calm   1.0 mph 90% 0.01 in SCT
17:20 72.2 °F 69.4 °F 29.80 in Calm   1.0 mph 91% 0.00 in SCT
17:30 72.1 °F 69.3 °F 29.80 in Calm   1.0 mph 91% 0.00 in SCT
17:40 71.7 °F 69.0 °F 29.81 in Calm   1.0 mph 91% 0.00 in SCT
17:50 71.8 °F 69.0 °F 29.80 in Calm     91% 0.00 in SCT
18:00 71.7 °F 69.0 °F 29.80 in Calm   1.0 mph 91% 0.00 in SCT
18:10 72.0 °F 69.2 °F 29.79 in Calm     91% 0.00 in SCT
18:20 72.2 °F 69.4 °F 29.78 in Calm   1.0 mph 91% 0.00 in SCT
18:30 71.9 °F 68.8 °F 29.78 in Calm     90% 0.00 in SCT
18:40 72.0 °F 69.2 °F 29.78 in Calm     91% 0.00 in SCT
18:50 71.9 °F 69.1 °F 29.78 in Calm   1.0 mph 91% 0.00 in SCT
19:00 71.6 °F 68.8 °F 29.78 in Calm     91% 0.00 in SCT
19:10 71.6 °F 68.8 °F 29.78 in Calm     91% 0.00 in SCT
19:20 71.4 °F 68.6 °F 29.79 in Calm   1.0 mph 91% 0.00 in SCT
19:30 71.4 °F 68.6 °F 29.79 in Calm     91% 0.00 in SCT
19:40 71.4 °F 69.0 °F 29.80 in Calm     92% 0.00 in SCT
19:50 71.4 °F 69.0 °F 29.80 in Calm     92% 0.00 in SCT
20:00 71.5 °F 69.0 °F 29.80 in Calm     92% 0.00 in SCT
20:10 71.5 °F 69.0 °F 29.80 in Calm     92% 0.00 in SCT
20:20 71.3 °F 68.9 °F 29.80 in Calm     92% 0.00 in SCT
20:30 71.1 °F 68.7 °F 29.80 in Calm     92% 0.00 in SCT
20:40 71.0 °F 68.6 °F 29.79 in Calm     92% 0.00 in SCT
20:50 70.9 °F 68.4 °F 29.80 in Calm     92% 0.00 in SCT
21:00 70.6 °F 68.2 °F 29.80 in Calm     92% 0.00 in SCT
21:10 70.4 °F 68.0 °F 29.80 in Calm     92% 0.00 in SCT
21:30 70.2 °F 67.8 °F 29.81 in Calm     92% 0.00 in SCT
21:40 70.2 °F 67.8 °F 29.81 in Calm     92% 0.00 in SCT
21:50 70.1 °F 68.0 °F 29.81 in Calm     93% 0.00 in SCT
22:00 70.2 °F 68.0 °F 29.81 in Calm     93% 0.00 in SCT
22:10 70.1 °F 68.0 °F 29.81 in Calm     93% 0.00 in SCT
22:20 70.1 °F 68.0 °F 29.82 in Calm     93% 0.00 in SCT
22:30 70.1 °F 68.0 °F 29.82 in Calm     93% 0.00 in SCT
22:40 70.1 °F 68.0 °F 29.82 in Calm     93% 0.00 in SCT
22:50 70.0 °F 67.9 °F 29.83 in Calm     93% 0.00 in SCT
23:00 69.9 °F 67.8 °F 29.83 in Calm     93% 0.00 in SCT
23:10 69.8 °F 67.7 °F 29.83 in Calm     93% 0.00 in SCT
23:20 69.7 °F 67.6 °F 29.83 in Calm     93% 0.00 in SCT
23:30 69.7 °F 67.6 °F 29.83 in Calm     93% 0.00 in SCT
23:40 69.7 °F 67.6 °F 29.83 in Calm     93% 0.00 in SCT
23:50 69.7 °F 67.6 °F 29.83 in Calm     93% 0.00 in SCT
Piedmont Bend
Compliments of Weather Underground - 4 mb